Time;durP1;ratioP1;P1;durP2;ratioP2;P2;SDS_P1;SDS_P2;PMS_P1;PMS_P2;Temp;Humidity;BMP_temperature;BMP_pressure;BME280_temperature;BME280_humidity;BME280_pressure;Samples;Min_cycle;Max_cycle;Signal;HPM_P1;HPM_P2
2021/08/13 00:02:32;;;;;;;11.57;7.60;;;;;;;12.87;68.68;100851.17;154258;1096;103259;-78
2021/08/13 00:05:35;;;;;;;11.20;6.73;;;;;;;12.86;68.23;100855.69;154085;1096;103125;-79
2021/08/13 00:08:38;;;;;;;8.73;6.37;;;;;;;12.90;69.12;100859.74;154252;1101;103124;-80
2021/08/13 00:11:41;;;;;;;10.33;6.70;;;;;;;12.87;68.82;100857.36;154172;1096;103126;-81
2021/08/13 00:14:44;;;;;;;12.63;7.10;;;;;;;12.92;69.14;100855.08;154118;1097;103093;-79
2021/08/13 00:17:47;;;;;;;9.87;7.30;;;;;;;13.01;68.62;100853.33;154261;1101;103297;-80
2021/08/13 00:20:49;;;;;;;10.50;7.60;;;;;;;13.01;68.76;100847.97;154220;1101;103186;-79
2021/08/13 00:23:52;;;;;;;12.60;7.80;;;;;;;12.92;68.43;100854.23;154099;1097;103193;-79
2021/08/13 00:26:55;;;;;;;12.53;7.43;;;;;;;12.77;68.86;100852.08;154139;1101;103096;-80
2021/08/13 00:29:58;;;;;;;9.50;6.57;;;;;;;12.68;69.11;100855.70;154063;1096;103204;-79
2021/08/13 00:33:01;;;;;;;11.03;6.37;;;;;;;12.69;69.30;100857.36;153937;1095;103138;-80
2021/08/13 00:36:04;;;;;;;10.23;6.53;;;;;;;12.71;69.30;100852.70;153965;1096;103226;-80
2021/08/13 00:39:08;;;;;;;12.77;7.17;;;;;;;12.73;69.15;100861.42;153967;1097;103151;-80
2021/08/13 00:42:11;;;;;;;10.95;7.50;;;;;;;12.82;69.48;100854.32;154113;1101;103110;-80
2021/08/13 00:45:17;;;;;;;10.70;7.30;;;;;;;12.79;69.16;100851.10;153949;1096;103189;-77
2021/08/13 00:48:42;;;;;;;9.37;7.07;;;;;;;12.71;69.57;100846.51;153961;1096;103192;-77
2021/08/13 00:51:54;;;;;;;10.57;6.33;;;;;;;12.65;69.71;100839.09;153971;1101;103312;-79
2021/08/13 00:54:58;;;;;;;10.67;6.17;;;;;;;12.54;69.16;100846.33;154078;1096;103230;-79
2021/08/13 00:58:16;;;;;;;9.45;7.00;;;;;;;12.63;69.95;100844.59;153968;1101;103141;-80
2021/08/13 01:01:27;;;;;;;13.97;7.30;;;;;;;12.72;69.40;100846.36;154043;1094;103121;-79
2021/08/13 01:04:32;;;;;;;10.97;7.03;;;;;;;12.61;69.68;100840.39;154114;1095;103197;-80
2021/08/13 01:07:37;;;;;;;11.20;6.80;;;;;;;12.59;69.42;100843.22;154131;1096;103184;-81
2021/08/13 01:10:53;;;;;;;9.67;7.07;;;;;;;12.43;69.37;100841.19;154005;1097;103196;-79
2021/08/13 01:14:03;;;;;;;9.13;6.83;;;;;;;12.41;69.84;100845.02;154051;1101;103187;-79
2021/08/13 01:17:09;;;;;;;10.45;6.05;;;;;;;12.49;70.21;100850.45;153941;1095;103147;-79
2021/08/13 01:20:25;;;;;;;11.17;7.00;;;;;;;12.56;70.19;100843.51;153964;1101;103125;-80
2021/08/13 01:23:35;;;;;;;9.60;7.20;;;;;;;12.48;69.52;100843.43;154138;1101;103197;-81
2021/08/13 01:26:45;;;;;;;10.95;7.60;;;;;;;12.48;69.83;100846.11;154131;1101;103125;-80
2021/08/13 01:29:55;;;;;;;8.93;7.13;;;;;;;12.38;69.47;100840.81;154000;1101;103213;-79
2021/08/13 01:33:04;;;;;;;11.07;7.73;;;;;;;12.34;69.58;100844.79;153972;1097;103190;-81
2021/08/13 01:36:12;;;;;;;9.17;6.70;;;;;;;12.35;70.14;100849.97;154012;1096;103481;-82
2021/08/13 01:39:17;;;;;;;11.20;6.10;;;;;;;12.27;69.83;100849.88;154190;1101;103294;-81
2021/08/13 01:42:21;;;;;;;8.77;6.23;;;;;;;12.28;69.72;100846.23;154178;1093;103203;-81
2021/08/13 01:45:30;;;;;;;8.27;6.77;;;;;;;12.31;70.09;100851.27;154153;1101;103125;-82
2021/08/13 01:48:35;;;;;;;9.50;7.17;;;;;;;12.33;70.16;100851.12;154122;1101;103106;-81
2021/08/13 01:51:38;;;;;;;11.05;6.80;;;;;;;12.28;70.03;100854.26;154084;1101;103195;-80
2021/08/13 01:54:43;;;;;;;8.20;6.93;;;;;;;12.21;69.78;100855.00;154109;1093;103157;-82
2021/08/13 01:57:47;;;;;;;7.70;6.25;;;;;;;12.15;70.45;100841.22;154162;1093;103174;-82
2021/08/13 02:00:53;;;;;;;8.87;6.07;;;;;;;12.22;70.76;100843.30;154134;1101;103252;-83
2021/08/13 02:03:58;;;;;;;8.83;6.30;;;;;;;12.23;70.25;100836.97;154150;1101;103102;-81
2021/08/13 02:07:01;;;;;;;9.93;6.70;;;;;;;12.21;70.21;100839.78;154151;1093;103211;-79
2021/08/13 02:10:06;;;;;;;9.10;6.50;;;;;;;12.18;70.84;100834.72;153946;1101;103293;-79
2021/08/13 02:13:11;;;;;;;10.80;6.97;;;;;;;12.14;70.24;100838.69;153994;1101;103194;-80
2021/08/13 02:16:20;;;;;;;9.53;6.50;;;;;;;12.10;70.12;100837.30;154132;1101;103125;-79
2021/08/13 02:19:30;;;;;;;10.30;6.37;;;;;;;11.99;70.42;100846.38;154099;1101;103112;-79
2021/08/13 02:22:34;;;;;;;8.10;5.87;;;;;;;11.93;70.32;100847.81;154109;1094;103130;-82
2021/08/13 02:25:38;;;;;;;7.70;6.43;;;;;;;11.93;70.53;100850.48;154054;1101;103268;-80
2021/08/13 02:28:46;;;;;;;9.70;6.70;;;;;;;12.02;70.50;100851.42;154119;1101;103126;-82
2021/08/13 02:31:50;;;;;;;8.40;6.90;;;;;;;11.94;70.73;100851.33;154098;1101;103601;-82
2021/08/13 02:34:54;;;;;;;9.87;7.20;;;;;;;11.92;70.79;100850.63;154078;1093;103195;-82
2021/08/13 02:38:09;;;;;;;10.13;7.10;;;;;;;11.92;70.81;100848.80;154139;1093;103200;-84
2021/08/13 02:41:13;;;;;;;8.07;5.87;;;;;;;11.93;70.89;100861.19;154147;1093;103366;-82
2021/08/13 02:44:19;;;;;;;7.57;5.77;;;;;;;11.98;71.45;100855.38;154124;1101;103141;-85
2021/08/13 02:47:26;;;;;;;8.93;6.43;;;;;;;11.92;71.21;100854.14;154111;1101;103217;-80
2021/08/13 02:50:32;;;;;;;6.90;6.07;;;;;;;11.95;70.98;100863.69;154090;1101;103148;-81
2021/08/13 02:53:40;;;;;;;8.80;6.13;;;;;;;12.00;71.42;100853.41;154168;1093;103193;-80
2021/08/13 02:56:46;;;;;;;8.90;7.27;;;;;;;12.04;71.78;100849.44;154336;1101;103186;-82
2021/08/13 02:59:51;;;;;;;10.20;6.73;;;;;;;12.04;71.69;100846.77;154280;1101;103130;-78
2021/08/13 03:02:55;;;;;;;8.77;6.17;;;;;;;11.96;71.59;100854.69;154112;1093;104539;-79
2021/08/13 03:06:01;;;;;;;8.97;5.80;;;;;;;11.96;71.17;100857.37;154215;1093;103235;-78
2021/08/13 03:09:06;;;;;;;6.63;5.47;;;;;;;12.00;71.73;100855.24;154283;1101;103135;-80
2021/08/13 03:12:11;;;;;;;8.33;6.30;;;;;;;11.96;71.87;100857.37;154477;1094;103477;-78
2021/08/13 03:15:15;;;;;;;8.33;6.23;;;;;;;11.92;71.39;100855.98;153977;1101;103200;-79
2021/08/13 03:18:18;;;;;;;8.33;6.73;;;;;;;11.88;72.04;100854.56;154395;1101;103205;-79
2021/08/13 03:21:21;;;;;;;10.30;6.35;;;;;;;11.80;71.48;100852.62;154016;1101;103345;-80
2021/08/13 03:24:25;;;;;;;7.77;6.13;;;;;;;11.80;71.52;100860.64;154112;1093;103192;-80
2021/08/13 03:27:29;;;;;;;9.10;6.03;;;;;;;11.85;71.65;100850.33;154066;1093;104647;-80
2021/08/13 03:30:39;;;;;;;9.43;6.93;;;;;;;11.95;71.74;100855.66;154038;1101;103216;-79
2021/08/13 03:33:42;;;;;;;8.50;6.87;;;;;;;12.04;72.12;100851.28;154058;1101;103282;-82
2021/08/13 03:36:45;;;;;;;8.30;6.70;;;;;;;12.03;71.82;100850.45;154030;1093;103492;-82
2021/08/13 03:39:51;;;;;;;8.30;6.77;;;;;;;12.05;71.86;100845.79;154173;1093;103234;-79
2021/08/13 03:42:53;;;;;;;10.30;7.00;;;;;;;12.05;71.65;100848.46;154021;1094;103190;-77
2021/08/13 03:45:57;;;;;;;7.80;6.45;;;;;;;12.13;71.99;100847.72;153969;1101;103464;-79
2021/08/13 03:49:00;;;;;;;7.47;5.87;;;;;;;12.17;72.06;100849.94;153987;1101;103190;-80
2021/08/13 03:52:03;;;;;;;8.63;6.60;;;;;;;12.24;72.16;100852.01;154105;1101;103184;-81
2021/08/13 03:55:10;;;;;;;9.40;7.17;;;;;;;12.33;72.08;100857.30;154025;1093;103100;-78
2021/08/13 03:58:15;;;;;;;11.30;7.23;;;;;;;12.36;72.08;100856.19;154007;1101;103208;-78
2021/08/13 04:01:18;;;;;;;8.40;6.93;;;;;;;12.49;71.81;100855.80;154036;1101;103173;-79
2021/08/13 04:04:21;;;;;;;10.57;7.30;;;;;;;12.57;72.58;100847.88;154060;1101;103243;-78
2021/08/13 04:07:24;;;;;;;9.57;6.87;;;;;;;12.69;72.13;100843.14;153964;1094;103185;-79
2021/08/13 04:10:27;;;;;;;11.97;6.33;;;;;;;12.84;72.02;100851.49;154087;1093;103126;-82
2021/08/13 04:13:30;;;;;;;8.43;6.93;;;;;;;12.97;72.48;100851.92;154017;1101;103626;-80
2021/08/13 04:16:37;;;;;;;7.60;6.43;;;;;;;13.09;72.28;100845.34;154052;1101;103178;-78
2021/08/13 04:19:41;;;;;;;8.73;6.80;;;;;;;13.18;72.39;100853.44;153998;1093;103267;-79
2021/08/13 04:22:44;;;;;;;8.90;5.97;;;;;;;13.20;72.22;100852.28;153989;1101;103141;-79
2021/08/13 04:25:47;;;;;;;7.37;5.63;;;;;;;13.28;72.44;100862.22;154141;1096;103196;-81
2021/08/13 04:28:50;;;;;;;10.10;6.45;;;;;;;13.41;72.51;100853.81;154196;1094;103348;-82
2021/08/13 04:31:53;;;;;;;9.30;6.43;;;;;;;13.64;72.58;100854.13;154387;1098;103134;-81
2021/08/13 04:34:56;;;;;;;8.00;6.90;;;;;;;13.86;72.55;100860.81;154434;1098;103128;-84
2021/08/13 04:37:59;;;;;;;8.00;6.90;;;;;;;14.09;72.57;100864.60;154475;1098;103492;-79
2021/08/13 04:41:02;;;;;;;9.37;6.47;;;;;;;14.29;72.57;100865.17;154217;1093;103234;-80
2021/08/13 04:44:05;;;;;;;8.83;6.30;;;;;;;14.54;72.46;100867.94;154341;1098;103182;-80
2021/08/13 04:47:09;;;;;;;9.17;7.07;;;;;;;14.83;72.73;100869.38;154462;1098;103095;-79
2021/08/13 04:50:13;;;;;;;10.60;7.53;;;;;;;15.11;72.63;100861.84;154379;1101;103149;-79
2021/08/13 04:53:17;;;;;;;10.20;7.57;;;;;;;15.37;72.86;100863.50;154620;1093;103544;-79
2021/08/13 04:56:20;;;;;;;10.00;7.33;;;;;;;15.59;72.34;100868.19;154211;1093;103288;-80
2021/08/13 04:59:23;;;;;;;9.97;7.13;;;;;;;15.86;72.42;100871.53;154211;1100;103261;-80
2021/08/13 05:02:32;;;;;;;9.87;7.37;;;;;;;16.10;72.33;100873.28;154217;1100;103197;-79
2021/08/13 05:05:35;;;;;;;11.90;7.93;;;;;;;16.30;72.12;100865.61;154435;1101;103190;-80
2021/08/13 05:08:39;;;;;;;11.57;8.10;;;;;;;16.51;72.23;100866.86;154296;1094;103208;-82
2021/08/13 05:11:42;;;;;;;11.03;8.50;;;;;;;16.67;72.09;100866.78;154421;1093;103151;-80
2021/08/13 05:14:45;;;;;;;11.07;7.67;;;;;;;16.84;72.32;100862.99;154285;1100;103354;-78
2021/08/13 05:17:47;;;;;;;9.10;6.83;;;;;;;17.05;72.35;100861.47;154012;1094;103184;-78
2021/08/13 05:20:50;;;;;;;9.23;7.40;;;;;;;17.24;71.99;100869.09;154178;1094;103193;-81
2021/08/13 05:23:53;;;;;;;8.80;7.90;;;;;;;17.44;71.99;100861.31;154329;1094;103129;-79
2021/08/13 05:26:57;;;;;;;10.07;8.40;;;;;;;17.62;71.82;100869.05;154086;1093;103288;-76
2021/08/13 05:30:03;;;;;;;9.80;7.70;;;;;;;17.77;71.74;100862.84;154020;1093;103125;-77
2021/08/13 05:33:06;;;;;;;10.83;7.10;;;;;;;17.90;71.55;100860.37;154090;1100;103576;-76
2021/08/13 05:36:10;;;;;;;7.77;6.50;;;;;;;18.05;71.47;100866.59;154148;1100;103187;-77
2021/08/13 05:39:14;;;;;;;11.50;6.80;;;;;;;18.20;71.43;100858.45;154068;1094;103123;-79
2021/08/13 05:42:17;;;;;;;8.40;7.50;;;;;;;18.37;71.51;100858.26;154013;1094;103097;-76
2021/08/13 05:45:20;;;;;;;8.50;7.50;;;;;;;18.50;71.29;100857.59;154027;1093;103213;-77
2021/08/13 05:48:23;;;;;;;8.57;7.03;;;;;;;18.60;70.94;100860.81;154055;1100;103134;-76
2021/08/13 05:51:28;;;;;;;10.30;7.60;;;;;;;18.64;70.78;100859.39;154065;1100;103201;-77
2021/08/13 05:54:31;;;;;;;7.97;6.73;;;;;;;18.68;70.81;100855.27;153998;1093;103210;-76
2021/08/13 05:57:34;;;;;;;9.03;6.90;;;;;;;18.75;70.88;100856.19;154002;1093;103203;-78
2021/08/13 06:00:37;;;;;;;8.37;7.47;;;;;;;18.87;70.70;100861.13;154254;1098;103208;-80
2021/08/13 06:03:42;;;;;;;7.65;6.90;;;;;;;18.96;70.73;100854.56;154623;1098;103213;-78
2021/08/13 06:06:45;;;;;;;9.40;6.50;;;;;;;19.05;70.54;100864.19;154686;1093;103186;-78
2021/08/13 06:09:49;;;;;;;9.70;7.95;;;;;;;19.14;70.49;100864.91;154644;1093;103550;-78
2021/08/13 06:12:53;;;;;;;9.95;7.75;;;;;;;19.17;70.29;100865.36;154539;1093;103126;-77
2021/08/13 06:15:57;;;;;;;10.83;7.40;;;;;;;19.17;70.27;100870.77;154555;1093;103122;-77
2021/08/13 06:18:59;;;;;;;6.07;4.97;;;;;;;19.19;69.93;100862.47;154204;1099;103572;-77
2021/08/13 06:22:04;;;;;;;6.20;5.60;;;;;;;19.31;69.83;100870.89;154602;1098;103189;-76
2021/08/13 06:25:09;;;;;;;6.50;5.23;;;;;;;19.43;69.21;100872.02;154065;1098;103189;-76
2021/08/13 06:28:13;;;;;;;6.13;5.30;;;;;;;19.54;69.63;100868.78;154049;1101;103177;-77
2021/08/13 06:31:18;;;;;;;6.27;5.40;;;;;;;19.64;69.22;100867.59;154037;1101;103264;-80
2021/08/13 06:34:21;;;;;;;7.38;5.43;;;;;;;19.75;69.17;100867.08;154340;1101;103116;-79
2021/08/13 06:37:27;;;;;;;6.17;5.40;;;;;;;19.84;68.99;100865.86;154236;1101;103680;-80
2021/08/13 06:40:32;;;;;;;6.73;5.90;;;;;;;19.89;68.84;100865.28;154127;1101;103160;-83
2021/08/13 06:43:35;;;;;;;6.60;4.87;;;;;;;19.95;68.52;100868.02;154126;1093;103187;-76
2021/08/13 06:46:40;;;;;;;5.97;5.30;;;;;;;20.02;68.73;100861.83;154022;1093;103251;-73
2021/08/13 06:49:43;;;;;;;6.77;6.00;;;;;;;20.10;68.63;100873.31;154067;1101;103193;-79
2021/08/13 06:52:47;;;;;;;9.10;5.55;;;;;;;20.16;68.83;100864.38;154078;1101;103201;-77
2021/08/13 06:55:50;;;;;;;7.57;5.83;;;;;;;20.25;68.25;100866.94;154018;1093;103174;-78
2021/08/13 06:58:56;;;;;;;8.20;6.07;;;;;;;20.31;68.05;100866.95;154034;1101;103109;-78
2021/08/13 07:01:59;;;;;;;8.10;6.60;;;;;;;20.35;67.89;100868.21;154267;1093;103299;-78
2021/08/13 07:05:04;;;;;;;6.60;5.67;;;;;;;20.42;68.01;100867.39;154090;1101;103189;-77
2021/08/13 07:08:10;;;;;;;6.20;5.10;;;;;;;20.51;68.04;100866.18;155638;1101;103119;-77
2021/08/13 07:11:15;;;;;;;7.90;6.00;;;;;;;20.62;67.98;100856.66;154086;1093;103127;-76
2021/08/13 07:14:19;;;;;;;8.93;6.60;;;;;;;20.73;68.10;100867.74;154970;1093;103187;-80
2021/08/13 07:17:23;;;;;;;11.67;7.17;;;;;;;20.83;67.92;100863.80;154751;1098;103186;-77
2021/08/13 07:20:26;;;;;;;8.47;6.47;;;;;;;20.90;67.77;100870.05;155055;1093;103183;-79
2021/08/13 07:23:29;;;;;;;9.60;6.63;;;;;;;20.97;67.66;100876.34;154946;1093;104218;-79
2021/08/13 07:26:34;;;;;;;8.67;6.77;;;;;;;21.02;67.51;100871.13;154687;1093;103206;-78
2021/08/13 07:29:37;;;;;;;9.53;6.83;;;;;;;21.06;67.15;100869.67;154560;1093;103195;-79
2021/08/13 07:32:39;;;;;;;10.83;7.10;;;;;;;21.12;67.32;100870.72;154981;1098;103256;-78
2021/08/13 07:35:43;;;;;;;9.50;7.07;;;;;;;21.16;66.63;100869.26;155045;1101;103175;-76
2021/08/13 07:38:46;;;;;;;8.10;6.60;;;;;;;21.17;67.19;100876.34;154904;1093;103115;-74
2021/08/13 07:41:49;;;;;;;9.00;6.60;;;;;;;21.24;66.97;100874.48;154369;1093;103328;-74
2021/08/13 07:44:52;;;;;;;7.43;6.67;;;;;;;21.31;67.10;100877.20;154476;1099;103128;-76
2021/08/13 07:47:54;;;;;;;7.57;6.27;;;;;;;21.39;67.26;100871.56;154360;1101;103131;-77
2021/08/13 07:50:58;;;;;;;7.30;6.13;;;;;;;21.46;66.96;100869.72;154550;1098;103226;-75
2021/08/13 07:54:01;;;;;;;11.17;7.00;;;;;;;21.51;66.29;100879.94;154661;1098;103211;-77
2021/08/13 07:57:05;;;;;;;9.10;6.63;;;;;;;21.53;66.67;100878.67;154606;1093;103116;-78
2021/08/13 08:00:10;;;;;;;9.77;6.77;;;;;;;21.59;66.28;100887.86;155120;1098;103107;-76
2021/08/13 08:03:25;;;;;;;9.60;6.55;;;;;;;21.63;65.89;100880.95;154876;1098;103199;-74
2021/08/13 08:06:29;;;;;;;6.93;6.20;;;;;;;21.66;65.73;100887.87;154947;1098;103137;-77
2021/08/13 08:09:32;;;;;;;7.75;6.05;;;;;;;21.70;65.61;100878.25;154790;1098;103128;-76
2021/08/13 08:12:35;;;;;;;6.67;5.97;;;;;;;21.73;65.00;100875.13;154739;1093;103217;-78
2021/08/13 08:15:38;;;;;;;9.00;6.80;;;;;;;21.75;65.00;100873.85;154821;1098;103117;-74
2021/08/13 08:18:40;;;;;;;9.60;6.63;;;;;;;21.78;63.97;100875.30;154801;1098;103355;-76
2021/08/13 08:21:43;;;;;;;13.03;10.23;;;;;;;21.85;64.70;100876.13;154629;1093;103192;-75
2021/08/13 08:24:46;;;;;;;8.00;5.67;;;;;;;21.90;64.51;100876.34;154617;1098;103579;-77
2021/08/13 08:27:48;;;;;;;8.27;6.63;;;;;;;21.93;64.35;100875.89;154655;1098;103122;-76
2021/08/13 08:30:51;;;;;;;10.13;8.03;;;;;;;21.96;63.92;100875.48;154544;1098;103321;-77
2021/08/13 08:33:54;;;;;;;10.03;7.37;;;;;;;21.99;63.80;100874.20;154603;1098;103175;-80
2021/08/13 08:36:56;;;;;;;8.43;6.07;;;;;;;22.03;64.20;100874.62;154622;1098;103470;-78
2021/08/13 08:39:59;;;;;;;5.10;4.40;;;;;;;22.07;62.91;100871.25;154622;1098;103147;-77
2021/08/13 08:43:05;;;;;;;6.30;4.80;;;;;;;22.12;63.50;100867.91;154704;1098;103254;-81
2021/08/13 08:46:09;;;;;;;6.90;6.10;;;;;;;22.14;63.01;100880.22;154641;1098;103485;-77
2021/08/13 08:49:13;;;;;;;5.03;4.47;;;;;;;22.16;63.03;100869.97;154711;1093;103122;-78
2021/08/13 08:52:19;;;;;;;6.57;5.40;;;;;;;22.23;62.56;100874.53;154642;1098;103184;-79
2021/08/13 08:55:22;;;;;;;6.60;5.27;;;;;;;22.26;62.18;100877.70;154785;1098;103185;-79
2021/08/13 08:58:26;;;;;;;5.70;4.47;;;;;;;22.27;62.24;100871.23;154681;1098;103099;-79
2021/08/13 09:01:28;;;;;;;6.00;5.13;;;;;;;22.31;62.23;100874.35;154794;1093;103118;-79
2021/08/13 09:04:31;;;;;;;4.87;4.37;;;;;;;22.33;60.90;100872.25;154679;1098;103193;-79
2021/08/13 09:07:34;;;;;;;5.33;4.83;;;;;;;22.34;61.39;100882.91;154433;1098;103275;-77
2021/08/13 09:10:36;;;;;;;5.77;4.30;;;;;;;22.37;60.50;100878.92;154602;1093;103195;-79
2021/08/13 09:13:39;;;;;;;5.10;4.37;;;;;;;22.42;61.07;100876.40;154287;1098;103224;-78
2021/08/13 09:17:01;;;;;;;5.25;4.50;;;;;;;22.46;60.82;100879.49;154617;1098;103138;-79
2021/08/13 09:20:03;;;;;;;;;;;;;;;22.48;59.79;100882.83;154671;1098;103125;-79
2021/08/13 09:23:04;;;;;;;;;;;;;;;22.48;59.29;100874.67;154552;1098;103188;-80
2021/08/13 09:26:09;;;;;;;4.30;3.60;;;;;;;22.55;59.36;100867.32;154678;1093;103122;-80
2021/08/13 09:29:30;;;;;;;5.13;4.17;;;;;;;22.65;59.13;100872.28;154579;1093;103139;-79
2021/08/13 09:32:59;;;;;;;3.63;3.20;;;;;;;22.64;59.39;100866.02;154599;1098;103118;-79
2021/08/13 09:36:03;;;;;;;4.63;4.13;;;;;;;22.71;59.39;100866.83;154628;1098;103109;-79
2021/08/13 09:39:08;;;;;;;4.70;4.20;;;;;;;22.76;58.96;100862.61;154632;1093;103199;-78
2021/08/13 09:42:11;;;;;;;4.90;4.20;;;;;;;22.74;58.49;100860.10;154319;1099;103486;-79
2021/08/13 09:45:14;;;;;;;4.30;3.90;;;;;;;22.72;58.92;100852.15;153959;1094;103192;-79
2021/08/13 09:48:24;;;;;;;4.65;4.10;;;;;;;22.72;58.43;100860.31;153973;1101;103124;-78
2021/08/13 09:51:32;;;;;;;4.37;3.70;;;;;;;22.73;58.66;100859.27;154045;1101;103141;-78
2021/08/13 09:54:35;;;;;;;6.90;3.90;;;;;;;22.80;57.79;100861.11;153993;1101;103516;-80
2021/08/13 09:57:43;;;;;;;4.70;3.67;;;;;;;22.84;57.98;100859.62;153971;1101;103272;-78
2021/08/13 10:00:47;;;;;;;4.37;3.97;;;;;;;22.92;57.58;100859.34;154679;1098;103189;-79
2021/08/13 10:03:52;;;;;;;4.20;3.60;;;;;;;22.98;56.61;100865.80;154608;1098;103110;-77
2021/08/13 10:06:55;;;;;;;7.67;4.30;;;;;;;23.02;57.80;100859.71;154568;1094;103122;-81
2021/08/13 10:10:08;;;;;;;4.63;4.20;;;;;;;23.09;56.93;100852.34;154000;1101;103178;-79
2021/08/13 10:13:12;;;;;;;6.30;4.13;;;;;;;23.14;57.66;100848.97;153970;1100;103557;-80
2021/08/13 10:16:41;;;;;;;5.00;4.27;;;;;;;23.14;55.98;100851.69;154001;1093;103214;-79
2021/08/13 10:19:51;;;;;;;4.70;4.10;;;;;;;23.11;56.67;100843.95;153985;1100;103192;-79
2021/08/13 10:22:54;;;;;;;4.60;4.10;;;;;;;23.13;57.02;100845.42;154008;1100;103120;-79
2021/08/13 10:25:58;;;;;;;5.00;4.00;;;;;;;23.15;56.46;100845.17;153968;1100;103214;-80
2021/08/13 10:29:07;;;;;;;4.20;3.80;;;;;;;23.17;56.13;100842.23;153986;1093;103093;-79
2021/08/13 10:32:10;;;;;;;4.67;3.80;;;;;;;23.15;55.91;100842.45;153980;1100;103125;-78
2021/08/13 10:35:14;;;;;;;4.13;3.67;;;;;;;23.07;56.12;100840.84;154005;1100;103189;-78
2021/08/13 10:38:19;;;;;;;3.45;3.15;;;;;;;23.04;56.48;100835.86;154024;1100;103139;-79
2021/08/13 10:41:28;;;;;;;4.17;3.77;;;;;;;23.10;55.93;100834.14;154040;1093;103238;-78
2021/08/13 10:44:44;;;;;;;4.10;3.70;;;;;;;23.11;55.91;100828.48;153998;1100;103291;-78
2021/08/13 10:47:54;;;;;;;4.10;3.67;;;;;;;23.11;55.85;100823.03;154020;1101;103179;-79
2021/08/13 10:50:58;;;;;;;4.13;3.47;;;;;;;23.18;55.58;100824.86;154063;1093;103208;-81
2021/08/13 10:54:07;;;;;;;4.57;3.93;;;;;;;23.25;55.00;100828.34;154601;1093;103185;-80
2021/08/13 10:57:11;;;;;;;4.30;3.87;;;;;;;23.26;55.27;100833.56;154171;1099;103198;-78
2021/08/13 11:00:15;;;;;;;3.85;3.55;;;;;;;23.17;54.96;100826.73;154599;1098;103247;-78
2021/08/13 11:03:19;;;;;;;4.65;3.90;;;;;;;23.07;55.01;100821.78;154670;1098;103122;-79
2021/08/13 11:06:42;;;;;;;8.50;4.97;;;;;;;22.99;54.55;100813.88;154200;1093;103205;-79
2021/08/13 11:09:50;;;;;;;6.60;4.00;;;;;;;22.99;55.15;100813.05;154244;1098;103188;-79
2021/08/13 11:13:11;;;;;;;4.97;4.10;;;;;;;23.04;55.33;100808.64;154168;1098;103174;-79
2021/08/13 11:16:34;;;;;;;5.43;3.73;;;;;;;23.19;55.47;100802.01;154586;1098;103189;-81
2021/08/13 11:20:00;;;;;;;3.97;3.43;;;;;;;23.29;54.57;100813.25;154583;1098;103133;-79
2021/08/13 11:23:08;;;;;;;4.47;3.60;;;;;;;23.37;53.79;100801.23;154532;1098;103126;-78
2021/08/13 11:26:12;;;;;;;4.87;4.10;;;;;;;23.39;54.44;100797.22;154451;1093;103189;-78
2021/08/13 11:29:35;;;;;;;4.20;3.80;;;;;;;23.49;54.58;100794.80;154269;1093;103180;-78
2021/08/13 11:32:44;;;;;;;4.00;3.53;;;;;;;23.58;54.63;100791.80;154331;1098;103360;-78
2021/08/13 11:35:47;;;;;;;5.20;3.70;;;;;;;23.70;54.45;100796.25;154610;1098;103226;-79
2021/08/13 11:39:01;;;;;;;4.63;3.47;;;;;;;23.74;53.75;100787.64;154632;1098;103187;-79
2021/08/13 11:42:07;;;;;;;4.10;3.70;;;;;;;23.67;53.43;100783.10;154558;1098;103138;-77
2021/08/13 11:45:11;;;;;;;6.43;5.27;;;;;;;23.63;53.71;100786.48;154145;1093;103150;-79
2021/08/13 11:48:15;;;;;;;5.20;3.70;;;;;;;23.57;53.51;100784.67;154592;1098;103190;-78
2021/08/13 11:51:18;;;;;;;4.10;3.70;;;;;;;23.43;53.24;100776.64;154233;1098;103151;-79
2021/08/13 11:54:28;;;;;;;5.73;4.07;;;;;;;23.35;53.81;100778.84;154559;1093;103154;-79
2021/08/13 11:57:32;;;;;;;5.73;4.17;;;;;;;23.30;54.05;100765.88;154190;1093;103195;-78
2021/08/13 12:00:38;;;;;;;5.93;4.20;;;;;;;23.25;54.08;100782.05;154659;1093;103148;-79
2021/08/13 12:03:41;;;;;;;4.97;4.30;;;;;;;23.24;54.26;100778.50;154599;1093;103191;-79
2021/08/13 12:07:00;;;;;;;4.30;3.80;;;;;;;23.25;53.85;100784.77;154570;1098;104571;-78
2021/08/13 12:10:11;;;;;;;4.60;3.80;;;;;;;23.17;54.16;100780.45;154496;1098;103635;-80
2021/08/13 12:13:13;;;;;;;;;;;;;;;23.23;53.88;100786.89;154016;1101;103158;-79
2021/08/13 12:16:19;;;;;;;5.28;3.95;;;;;;;23.33;53.63;100781.78;154187;1099;103183;-78
2021/08/13 12:19:23;;;;;;;4.93;4.10;;;;;;;23.44;54.17;100774.75;154220;1098;103257;-79
2021/08/13 12:22:33;;;;;;;7.57;4.30;;;;;;;23.52;53.33;100775.30;154678;1098;103191;-79
2021/08/13 12:25:40;;;;;;;5.23;4.00;;;;;;;23.52;53.33;100764.40;154567;1098;103212;-79
2021/08/13 12:28:43;;;;;;;4.70;4.30;;;;;;;23.58;52.63;100767.28;154059;1101;103149;-79
2021/08/13 12:31:54;;;;;;;4.67;4.17;;;;;;;23.63;53.38;100759.24;154225;1093;103187;-79
2021/08/13 12:34:57;;;;;;;7.57;4.07;;;;;;;23.67;52.64;100764.03;154022;1093;103125;-80
2021/08/13 12:38:00;;;;;;;4.33;3.90;;;;;;;23.76;52.72;100750.09;154654;1094;103130;-78
2021/08/13 12:41:04;;;;;;;4.83;4.33;;;;;;;23.76;52.66;100755.55;154542;1098;103128;-78
2021/08/13 12:44:08;;;;;;;5.43;4.20;;;;;;;23.66;52.41;100759.63;154026;1093;103241;-78
2021/08/13 12:47:13;;;;;;;4.97;4.10;;;;;;;23.53;52.74;100763.33;154326;1093;103262;-79
2021/08/13 12:50:17;;;;;;;5.63;4.83;;;;;;;23.47;52.40;100761.52;154039;1101;103291;-79
2021/08/13 12:53:33;;;;;;;4.77;4.37;;;;;;;23.52;52.21;100756.23;154154;1101;103179;-79
2021/08/13 12:56:36;;;;;;;5.67;4.10;;;;;;;23.53;51.79;100759.77;154010;1094;103182;-78
2021/08/13 12:59:40;;;;;;;4.60;4.20;;;;;;;23.49;52.33;100753.13;154033;1101;103193;-78
2021/08/13 13:02:43;;;;;;;6.87;4.77;;;;;;;23.46;52.10;100738.08;153991;1101;103162;-79
2021/08/13 13:06:06;;;;;;;5.00;4.50;;;;;;;23.50;52.30;100755.63;153983;1093;103121;-78
2021/08/13 13:09:10;;;;;;;5.30;4.37;;;;;;;23.53;52.54;100755.16;153993;1093;103269;-78
2021/08/13 13:12:15;;;;;;;5.93;4.60;;;;;;;23.59;52.90;100747.97;153963;1093;103187;-77
2021/08/13 13:15:26;;;;;;;5.10;4.50;;;;;;;23.64;52.66;100750.84;153990;1101;103128;-79
2021/08/13 13:18:31;;;;;;;6.30;4.50;;;;;;;23.73;52.99;100743.22;154015;1094;103103;-78
2021/08/13 13:21:34;;;;;;;6.20;4.20;;;;;;;23.84;52.48;100747.91;153965;1101;103305;-79
2021/08/13 13:24:38;;;;;;;4.83;3.97;;;;;;;23.97;52.34;100748.81;153997;1101;103211;-80
2021/08/13 13:27:54;;;;;;;4.80;4.17;;;;;;;24.11;51.99;100736.66;153932;1101;103187;-79
2021/08/13 13:31:29;;;;;;;4.95;3.90;;;;;;;24.15;52.35;100735.13;153935;1101;103210;-78
2021/08/13 13:34:58;;;;;;;4.57;3.93;;;;;;;24.06;52.21;100736.53;153989;1093;103238;-80
2021/08/13 13:38:12;;;;;;;5.27;4.10;;;;;;;24.03;52.29;100726.08;153966;1101;103276;-79
2021/08/13 13:41:15;;;;;;;4.40;4.00;;;;;;;24.03;51.90;100731.53;154430;1093;103209;-80
2021/08/13 13:44:23;;;;;;;5.33;4.10;;;;;;;24.00;52.15;100737.43;154639;1098;103221;-79
2021/08/13 13:47:27;;;;;;;4.60;3.90;;;;;;;24.01;52.23;100729.03;154551;1093;103253;-78
2021/08/13 13:50:30;;;;;;;4.60;3.97;;;;;;;24.10;52.19;100724.10;154643;1093;103189;-79
2021/08/13 13:53:33;;;;;;;5.70;3.87;;;;;;;24.20;52.04;100727.09;154003;1101;103197;-79
2021/08/13 13:56:36;;;;;;;7.33;4.20;;;;;;;24.26;51.87;100719.88;154013;1101;103244;-80
2021/08/13 13:59:39;;;;;;;4.60;4.10;;;;;;;24.28;51.48;100712.30;153948;1096;103122;-78
2021/08/13 14:02:44;;;;;;;4.37;3.93;;;;;;;24.32;51.52;100712.66;153966;1096;103135;-79
2021/08/13 14:05:47;;;;;;;5.37;3.77;;;;;;;24.32;51.50;100705.30;153995;1096;103187;-78